Time;durP1;ratioP1;P1;durP2;ratioP2;P2;SDS_P1;SDS_P2;PMS_P1;PMS_P2;Temp;Humidity;BMP_temperature;BMP_pressure;BME280_temperature;BME280_humidity;BME280_pressure;Samples;Min_cycle;Max_cycle;Signal;HPM_P1;HPM_P2
2023/11/23 00:00:39;;;;;;;;;23.50;21.75;;;;;5.95;100.00;99485.53;6161557;28;96313;-66
2023/11/23 00:03:42;;;;;;;;;29.00;27.60;;;;;5.97;100.00;99479.97;6179781;28;96560;-67
2023/11/23 00:06:45;;;;;;;;;26.25;24.50;;;;;5.96;100.00;99486.38;6177842;28;96492;-66
2023/11/23 00:09:50;;;;;;;;;34.60;30.40;;;;;5.91;100.00;99478.03;6186116;28;97026;-66
2023/11/23 00:12:53;;;;;;;;;27.00;25.00;;;;;5.93;100.00;99458.09;6186773;28;96348;-67
2023/11/23 00:15:56;;;;;;;;;29.00;26.40;;;;;5.84;100.00;99455.63;6162827;28;96722;-66
2023/11/23 00:18:59;;;;;;;;;28.40;25.20;;;;;5.90;100.00;99453.13;6162547;28;96650;-66
2023/11/23 00:22:02;;;;;;;;;31.80;28.00;;;;;5.85;100.00;99443.91;6188077;28;96340;-74
2023/11/23 00:25:11;;;;;;;;;29.80;26.80;;;;;5.89;100.00;99431.88;6190554;28;97200;-74
2023/11/23 00:28:15;;;;;;;;;29.75;28.00;;;;;5.93;100.00;99455.41;6167369;28;96413;-73
2023/11/23 00:31:18;;;;;;;;;27.40;24.00;;;;;5.83;100.00;99445.94;6187857;28;96907;-74
2023/11/23 00:34:21;;;;;;;;;24.60;21.60;;;;;5.85;100.00;99452.78;6191411;28;96844;-74
2023/11/23 00:37:24;;;;;;;;;24.40;22.00;;;;;5.79;100.00;99450.81;6191043;28;97028;-74
2023/11/23 00:40:30;;;;;;;;;30.50;24.75;;;;;5.77;100.00;99443.94;6191741;28;96319;-74
2023/11/23 00:43:33;;;;;;;;;29.00;27.60;;;;;5.88;100.00;99436.38;6165777;28;96780;-73
2023/11/23 00:46:37;;;;;;;;;28.50;25.25;;;;;5.72;100.00;99428.44;6158137;28;98401;-73
2023/11/23 00:49:40;;;;;;;;;31.00;29.40;;;;;5.64;100.00;99421.31;6132741;28;98497;-73
2023/11/23 00:52:43;;;;;;;;;32.00;30.00;;;;;5.65;100.00;99427.50;6148793;28;97904;-72
2023/11/23 00:55:48;;;;;;;;;37.00;32.00;;;;;5.72;100.00;99420.41;6170788;28;97491;-73
2023/11/23 00:58:51;;;;;;;;;28.60;26.40;;;;;5.74;100.00;99420.25;6191241;28;96440;-73
2023/11/23 01:01:54;;;;;;;;;31.40;28.80;;;;;5.74;100.00;99421.06;6190644;28;96364;-73
2023/11/23 01:04:58;;;;;;;;;33.67;29.67;;;;;5.67;100.00;99406.72;6190007;28;96649;-73
2023/11/23 01:08:01;;;;;;;;;30.80;27.40;;;;;5.63;100.00;99384.88;6168602;28;98265;-73
2023/11/23 01:11:06;;;;;;;;;28.60;25.60;;;;;5.80;100.00;99403.47;6189780;28;96360;-73
2023/11/23 01:14:09;;;;;;;;;33.20;29.60;;;;;5.71;100.00;99402.72;6179450;28;96701;-73
2023/11/23 01:17:12;;;;;;;;;32.00;30.00;;;;;5.85;100.00;99401.09;6180478;28;97316;-74
2023/11/23 01:20:16;;;;;;;;;35.40;31.40;;;;;5.86;100.00;99392.06;6184307;28;96442;-74
2023/11/23 01:23:19;;;;;;;;;39.00;34.00;;;;;5.84;100.00;99378.88;6164635;28;96429;-74
2023/11/23 01:26:23;;;;;;;;;37.20;32.40;;;;;5.85;100.00;99359.13;6167177;28;96926;-75
2023/11/23 01:29:26;;;;;;;;;38.40;33.80;;;;;5.82;100.00;99353.28;6172378;28;97116;-74
2023/11/23 01:32:30;;;;;;;;;35.00;32.00;;;;;5.69;100.00;99343.19;6192947;28;96323;-71
2023/11/23 01:35:33;;;;;;;;;38.40;33.00;;;;;5.76;100.00;99341.47;6202616;28;96386;-71
2023/11/23 01:38:36;;;;;;;;;37.80;32.00;;;;;5.67;100.00;99323.81;6187066;28;96458;-71
2023/11/23 01:41:40;;;;;;;;;35.80;30.40;;;;;5.60;100.00;99312.19;6171753;28;98928;-71
2023/11/23 01:44:44;;;;;;;;;37.40;32.00;;;;;5.57;100.00;99328.59;6196118;28;96331;-70
2023/11/23 01:47:47;;;;;;;;;43.25;35.25;;;;;5.60;100.00;99325.56;6210233;28;96374;-71
2023/11/23 01:50:52;;;;;;;;;37.60;31.80;;;;;5.45;100.00;99328.19;6180402;28;96658;-71
2023/11/23 01:53:56;;;;;;;;;40.25;34.25;;;;;5.35;100.00;99322.22;6201156;28;96297;-71
2023/11/23 01:57:01;;;;;;;;;38.40;31.80;;;;;5.40;100.00;99316.34;6186200;28;96480;-71
2023/11/23 02:00:05;;;;;;;;;35.40;30.40;;;;;5.40;100.00;99306.47;6165503;28;96421;-71
2023/11/23 02:03:15;;;;;;;;;38.60;33.00;;;;;5.44;100.00;99321.16;6200967;22;96640;-71
2023/11/23 02:06:19;;;;;;;;;34.80;31.60;;;;;5.44;100.00;99326.50;6239808;28;96472;-71
2023/11/23 02:09:23;;;;;;;;;33.00;30.00;;;;;5.36;100.00;99323.91;6208380;28;96233;-71
2023/11/23 02:12:28;;;;;;;;;40.00;32.50;;;;;5.37;100.00;99319.38;6196073;28;98551;-71
2023/11/23 02:15:31;;;;;;;;;36.40;32.00;;;;;5.40;100.00;99321.69;6206234;28;97170;-71
2023/11/23 02:18:37;;;;;;;;;36.20;31.60;;;;;5.31;100.00;99309.41;6223385;28;96340;-71
2023/11/23 02:21:41;;;;;;;;;40.40;33.40;;;;;5.36;100.00;99307.03;6227610;28;96916;-71
2023/11/23 02:24:46;;;;;;;;;37.00;32.00;;;;;5.46;100.00;99313.81;6189930;28;96808;-71
2023/11/23 02:27:50;;;;;;;;;34.40;31.00;;;;;5.53;100.00;99312.06;6221917;28;96409;-72
2023/11/23 02:30:53;;;;;;;;;35.00;30.00;;;;;5.45;100.00;99303.28;6203945;28;98520;-71
2023/11/23 02:33:57;;;;;;;;;32.00;29.00;;;;;5.51;100.00;99310.59;6203876;28;98520;-71
2023/11/23 02:37:00;;;;;;;;;33.00;29.20;;;;;5.48;100.00;99289.53;6229712;28;96248;-71
2023/11/23 02:40:06;;;;;;;;;36.20;31.60;;;;;5.45;100.00;99277.38;6221489;28;98420;-67
2023/11/23 02:43:09;;;;;;;;;34.20;30.00;;;;;5.47;100.00;99271.84;6213398;28;96490;-66
2023/11/23 02:46:13;;;;;;;;;36.80;30.40;;;;;5.49;100.00;99267.97;6219010;28;96794;-66
2023/11/23 02:49:16;;;;;;;;;29.00;26.50;;;;;5.37;100.00;99260.56;6239118;28;96363;-66
2023/11/23 02:52:19;;;;;;;;;35.00;30.00;;;;;5.47;100.00;99267.31;6223085;28;96614;-67
2023/11/23 02:55:24;;;;;;;;;29.00;28.00;;;;;5.34;100.00;99260.91;6210001;28;96850;-66
2023/11/23 02:58:28;;;;;;;;;33.20;30.00;;;;;5.27;100.00;99260.81;6195690;28;97840;-66
2023/11/23 03:01:32;;;;;;;;;32.60;29.60;;;;;5.28;100.00;99261.66;6215711;28;96644;-67
2023/11/23 03:04:36;;;;;;;;;33.80;30.00;;;;;5.24;100.00;99253.13;6214451;28;96730;-67
2023/11/23 03:07:39;;;;;;;;;30.20;28.60;;;;;5.12;100.00;99249.22;6215791;28;96366;-66
2023/11/23 03:10:44;;;;;;;;;29.50;27.75;;;;;5.08;100.00;99240.72;6202435;28;99108;-66
2023/11/23 03:13:48;;;;;;;;;32.50;30.25;;;;;5.14;100.00;99241.84;6213638;28;96404;-67
2023/11/23 03:16:52;;;;;;;;;31.40;30.00;;;;;4.96;100.00;99217.25;6213320;28;96342;-66
2023/11/23 03:19:55;;;;;;;;;31.00;28.40;;;;;5.04;100.00;99226.03;6195766;28;97158;-65
2023/11/23 03:22:58;;;;;;;;;34.75;29.75;;;;;4.96;100.00;99214.59;6178226;28;98577;-69
2023/11/23 03:26:03;;;;;;;;;31.00;30.00;;;;;5.05;100.00;99200.16;6202174;28;96747;-66
2023/11/23 03:29:07;;;;;;;;;34.00;31.40;;;;;5.05;100.00;99210.84;6237856;28;96296;-66
2023/11/23 03:32:10;;;;;;;;;36.00;33.00;;;;;5.14;100.00;99225.81;6221564;28;96741;-67
2023/11/23 03:35:13;;;;;;;;;38.00;32.00;;;;;5.09;100.00;99225.50;6178681;28;98401;-67
2023/11/23 03:38:16;;;;;;;;;37.40;32.00;;;;;5.11;100.00;99229.69;6226851;28;96296;-66
2023/11/23 03:41:20;;;;;;;;;40.00;33.50;;;;;5.13;100.00;99226.84;6217907;28;96235;-67
2023/11/23 03:44:24;;;;;;;;;39.80;32.40;;;;;5.07;100.00;99228.38;6195091;28;97012;-66
2023/11/23 03:47:27;;;;;;;;;37.60;33.00;;;;;5.15;100.00;99219.47;6212881;28;96742;-66
2023/11/23 03:50:31;;;;;;;;;42.00;33.00;;;;;5.13;100.00;99219.63;6218875;28;96490;-71
2023/11/23 03:53:34;;;;;;;;;35.60;31.60;;;;;5.17;100.00;99209.44;6232646;28;96230;-71
2023/11/23 03:56:38;;;;;;;;;37.00;32.00;;;;;5.19;100.00;99205.56;6224187;28;96260;-71
2023/11/23 03:59:42;;;;;;;;;40.00;35.00;;;;;5.23;100.00;99195.31;6222898;28;99239;-71
2023/11/23 04:02:46;;;;;;;;;35.00;30.60;;;;;5.25;100.00;99190.66;6219631;28;97135;-71
2023/11/23 04:05:49;;;;;;;;;35.00;32.00;;;;;5.32;100.00;99183.56;6252230;28;96261;-71
2023/11/23 04:08:52;;;;;;;;;36.00;31.00;;;;;5.33;100.00;99174.53;6231206;28;96831;-71
2023/11/23 04:11:57;;;;;;;;;36.80;31.80;;;;;5.38;100.00;99182.00;6244671;28;96366;-71
2023/11/23 04:15:00;;;;;;;;;36.50;31.50;;;;;5.36;100.00;99184.03;6218671;28;96374;-70
2023/11/23 04:18:05;;;;;;;;;34.20;31.20;;;;;5.31;100.00;99170.38;6236761;28;96280;-72
2023/11/23 04:21:08;;;;;;;;;29.50;28.50;;;;;5.29;100.00;99167.88;6228522;28;97514;-71
2023/11/23 04:24:12;;;;;;;;;37.00;31.40;;;;;5.27;100.00;99167.25;6203097;28;98927;-70
2023/11/23 04:27:17;;;;;;;;;40.00;32.00;;;;;5.18;100.00;99179.03;6228918;28;97079;-70
2023/11/23 04:30:20;;;;;;;;;37.40;32.00;;;;;5.21;100.00;99173.31;6225640;28;96742;-71
2023/11/23 04:33:23;;;;;;;;;37.00;32.00;;;;;5.24;100.00;99154.22;6231276;28;96276;-71
2023/11/23 04:36:28;;;;;;;;;33.50;29.25;;;;;5.20;100.00;99142.25;6237332;28;96464;-71
2023/11/23 04:39:31;;;;;;;;;32.40;29.00;;;;;5.19;100.00;99136.06;6230903;28;96334;-71
2023/11/23 04:42:36;;;;;;;;;29.60;27.00;;;;;5.26;100.00;99127.31;6220611;28;97144;-71
2023/11/23 04:45:40;;;;;;;;;33.00;30.00;;;;;5.21;100.00;99134.06;6220225;28;96873;-71
2023/11/23 04:48:44;;;;;;;;;33.25;30.00;;;;;5.22;100.00;99110.81;6218932;28;97661;-71
2023/11/23 04:51:47;;;;;;;;;27.00;25.80;;;;;5.09;100.00;99089.22;6213958;28;96393;-71
2023/11/23 04:54:50;;;;;;;;;30.80;27.40;;;;;5.22;100.00;99102.81;6211500;28;96772;-71
2023/11/23 04:57:54;;;;;;;;;32.40;29.00;;;;;5.24;100.00;99082.06;6213158;28;98738;-71
2023/11/23 05:00:58;;;;;;;;;37.00;33.00;;;;;5.27;100.00;99076.38;6208770;28;96622;-67
2023/11/23 05:04:02;;;;;;;;;34.50;30.75;;;;;5.27;100.00;99073.69;6213468;28;97188;-66
2023/11/23 05:07:08;;;;;;;;;35.60;32.60;;;;;5.27;100.00;99068.34;6204149;28;97129;-67
2023/11/23 05:10:11;;;;;;;;;31.60;30.00;;;;;5.28;100.00;99064.63;6226318;28;96452;-66
2023/11/23 05:13:15;;;;;;;;;29.00;27.50;;;;;5.30;100.00;99053.75;6199079;28;96383;-66
2023/11/23 05:16:18;;;;;;;;;28.20;27.20;;;;;5.35;100.00;99052.22;6195435;28;96626;-66
2023/11/23 05:19:22;;;;;;;;;33.75;30.75;;;;;5.31;100.00;99042.91;6214990;28;96420;-67
2023/11/23 05:22:41;;;;;;;;;30.25;27.75;;;;;5.30;100.00;99033.22;6216140;28;96287;-67
2023/11/23 05:25:44;;;;;;;;;33.80;29.40;;;;;5.34;100.00;99031.00;6234573;28;96799;-66
2023/11/23 05:28:49;;;;;;;;;29.75;27.25;;;;;5.24;100.00;99020.59;6240347;28;97070;-66
2023/11/23 05:31:52;;;;;;;;;28.40;26.00;;;;;5.28;100.00;99016.50;6220585;28;96849;-66
2023/11/23 05:34:55;;;;;;;;;27.75;25.75;;;;;5.22;100.00;99007.41;6202958;28;96494;-66
2023/11/23 05:37:58;;;;;;;;;27.33;27.33;;;;;5.22;100.00;99011.94;6237363;28;96958;-67
2023/11/23 05:41:01;;;;;;;;;29.00;25.00;;;;;5.18;100.00;99010.66;6212348;28;96856;-69
2023/11/23 05:44:07;;;;;;;;;23.80;21.20;;;;;5.15;100.00;99008.31;6205516;28;96516;-66
2023/11/23 05:47:10;;;;;;;;;29.60;27.20;;;;;5.12;100.00;99006.88;6207456;28;96647;-66
2023/11/23 05:50:13;;;;;;;;;30.75;29.00;;;;;5.18;100.00;98992.75;6234018;28;96304;-66
2023/11/23 05:53:16;;;;;;;;;26.60;24.60;;;;;5.17;100.00;98983.09;6217481;28;96988;-66
2023/11/23 05:56:20;;;;;;;;;24.00;22.00;;;;;5.18;100.00;98984.72;6226569;28;96979;-66
2023/11/23 05:59:25;;;;;;;;;27.00;24.50;;;;;5.23;100.00;98978.81;6215971;28;96294;-67
2023/11/23 06:02:28;;;;;;;;;31.50;26.00;;;;;5.21;100.00;98976.34;6230924;28;96310;-67
2023/11/23 06:05:31;;;;;;;;;24.80;22.80;;;;;5.21;100.00;98972.84;6219300;28;98592;-66
2023/11/23 06:08:35;;;;;;;;;25.00;22.00;;;;;5.30;100.00;98968.22;6212354;28;96697;-66
2023/11/23 06:11:38;;;;;;;;;21.00;20.20;;;;;5.40;100.00;98972.28;6231756;28;96965;-71
2023/11/23 06:14:42;;;;;;;;;18.00;16.75;;;;;5.32;100.00;98960.88;6229559;28;96402;-71
2023/11/23 06:17:45;;;;;;;;;25.00;22.25;;;;;5.33;100.00;98962.50;6222858;28;97787;-70
2023/11/23 06:20:49;;;;;;;;;22.40;20.00;;;;;5.40;100.00;98950.88;6205057;28;96834;-71
2023/11/23 06:23:52;;;;;;;;;20.75;20.00;;;;;5.48;100.00;98939.25;6234693;28;96340;-70
2023/11/23 06:26:55;;;;;;;;;25.00;22.00;;;;;5.48;100.00;98923.19;6223690;28;96584;-71
2023/11/23 06:30:00;;;;;;;;;21.00;20.00;;;;;5.39;100.00;98917.13;6206895;28;96903;-72
2023/11/23 06:33:03;;;;;;;;;26.00;23.40;;;;;5.52;100.00;98905.78;6225952;28;96719;-71
2023/11/23 06:36:08;;;;;;;;;20.50;20.00;;;;;5.47;100.00;98910.88;6203603;28;98419;-74
2023/11/23 06:39:11;;;;;;;;;21.80;20.20;;;;;5.65;100.00;98912.09;6198069;28;96595;-69
2023/11/23 06:42:14;;;;;;;;;22.00;20.25;;;;;5.67;100.00;98917.25;6211370;28;97236;-70
2023/11/23 06:45:19;;;;;;;;;21.80;20.40;;;;;5.76;100.00;98921.47;6208988;28;96379;-71
2023/11/23 06:48:22;;;;;;;;;25.80;22.00;;;;;5.80;100.00;98914.72;6217336;28;96557;-71
2023/11/23 06:51:25;;;;;;;;;19.75;18.50;;;;;5.84;100.00;98915.16;6211223;28;98929;-71
2023/11/23 06:54:28;;;;;;;;;28.00;24.00;;;;;5.81;100.00;98908.34;6195251;28;98441;-71
2023/11/23 06:57:32;;;;;;;;;22.40;21.00;;;;;5.91;100.00;98900.03;6213111;28;96286;-71
2023/11/23 07:00:36;;;;;;;;;24.00;22.00;;;;;5.92;100.00;98899.84;6196349;28;96910;-71
2023/11/23 07:03:41;;;;;;;;;24.00;22.00;;;;;5.96;100.00;98885.03;6213304;28;96434;-71
2023/11/23 07:06:45;;;;;;;;;24.00;21.40;;;;;5.87;100.00;98855.94;6214527;28;96207;-71
2023/11/23 07:09:48;;;;;;;;;25.40;23.40;;;;;5.98;100.00;98876.84;6179745;28;96886;-71
2023/11/23 07:12:51;;;;;;;;;24.00;21.40;;;;;6.06;100.00;98882.88;6222347;28;97093;-71
2023/11/23 07:15:56;;;;;;;;;24.00;22.00;;;;;6.15;100.00;98882.75;6226147;28;97096;-72
2023/11/23 07:18:59;;;;;;;;;22.00;21.00;;;;;6.25;100.00;98886.75;6195467;28;96706;-71
2023/11/23 07:22:02;;;;;;;;;21.00;19.00;;;;;6.25;100.00;98883.25;6196346;28;96992;-66
2023/11/23 07:25:08;;;;;;;;;20.00;19.40;;;;;6.33;100.00;98873.22;6219037;28;96522;-67
2023/11/23 07:28:12;;;;;;;;;26.00;22.20;;;;;6.36;100.00;98863.94;6219777;28;96448;-67
2023/11/23 07:31:16;;;;;;;;;22.00;20.00;;;;;6.50;100.00;98850.47;6222225;28;96952;-68
2023/11/23 07:34:20;;;;;;;;;19.80;19.60;;;;;6.63;100.00;98855.09;6221849;28;97497;-67
2023/11/23 07:37:23;;;;;;;;;21.60;19.00;;;;;6.78;100.00;98833.53;6215386;28;97000;-67
2023/11/23 07:40:26;;;;;;;;;21.00;19.40;;;;;6.86;100.00;98844.06;6211268;28;98405;-68
2023/11/23 07:43:31;;;;;;;;;21.40;20.40;;;;;6.95;100.00;98829.47;6209115;28;97908;-67
2023/11/23 07:46:36;;;;;;;;;19.50;18.50;;;;;7.03;100.00;98834.66;6221589;28;96975;-67
2023/11/23 07:49:39;;;;;;;;;20.00;17.00;;;;;7.08;100.00;98826.03;6195239;28;96946;-68
2023/11/23 07:52:43;;;;;;;;;21.25;18.50;;;;;7.17;100.00;98828.31;6234204;28;97572;-68
2023/11/23 07:55:46;;;;;;;;;17.60;16.60;;;;;7.35;100.00;98819.69;6216156;28;99154;-67
2023/11/23 07:58:49;;;;;;;;;20.00;18.00;;;;;7.30;100.00;98820.31;6234092;28;96471;-68
2023/11/23 08:01:55;;;;;;;;;19.00;17.00;;;;;7.56;100.00;98808.00;6230090;28;97003;-68
2023/11/23 08:04:59;;;;;;;;;19.40;18.00;;;;;7.71;100.00;98817.50;6199087;28;99381;-68
2023/11/23 08:08:03;;;;;;;;;17.40;16.40;;;;;7.82;100.00;98811.50;6229148;28;98442;-68
2023/11/23 08:11:06;;;;;;;;;18.75;16.00;;;;;7.91;100.00;98796.06;6231573;28;98539;-67
2023/11/23 08:14:12;;;;;;;;;19.60;16.60;;;;;7.77;100.00;98800.56;6222860;28;96872;-68
2023/11/23 08:17:17;;;;;;;;;16.00;15.00;;;;;7.95;100.00;98799.13;6236656;28;96318;-67
2023/11/23 08:20:23;;;;;;;;;18.40;16.00;;;;;8.06;100.00;98795.84;6235824;28;96492;-67
2023/11/23 08:23:28;;;;;;;;;17.40;15.40;;;;;8.06;100.00;98785.91;6223856;28;96505;-67
2023/11/23 08:26:31;;;;;;;;;16.00;15.00;;;;;8.14;100.00;98799.13;6236690;28;96351;-68
2023/11/23 08:29:35;;;;;;;;;20.60;17.00;;;;;8.48;100.00;98784.63;6236537;27;96325;-67
2023/11/23 08:32:40;;;;;;;;;18.00;17.25;;;;;8.67;100.00;98789.13;6237013;28;96345;-70
2023/11/23 08:35:44;;;;;;;;;16.00;15.50;;;;;8.78;100.00;98803.78;6224768;28;96647;-70
2023/11/23 08:38:48;;;;;;;;;17.33;14.00;;;;;8.88;100.00;98771.88;6236590;28;96379;-70
2023/11/23 08:41:51;;;;;;;;;15.00;12.80;;;;;9.00;100.00;98772.03;6227203;28;96279;-70
2023/11/23 08:44:55;;;;;;;;;16.25;14.25;;;;;9.12;100.00;98757.69;6208378;28;96931;-70
2023/11/23 08:48:00;;;;;;;;;16.00;14.00;;;;;9.33;100.00;98771.84;6231699;28;97474;-69
2023/11/23 08:51:04;;;;;;;;;17.75;15.00;;;;;9.48;100.00;98761.63;6237088;28;96676;-70
2023/11/23 08:54:08;;;;;;;;;16.00;14.25;;;;;9.84;100.00;98756.34;6231930;28;96801;-71
2023/11/23 08:57:11;;;;;;;;;18.80;15.80;;;;;10.12;100.00;98757.75;6240376;28;96330;-70
2023/11/23 09:00:16;;;;;;;;;14.40;13.40;;;;;9.92;100.00;98760.66;6233818;28;96730;-71
2023/11/23 09:03:21;;;;;;;;;14.00;13.80;;;;;9.76;100.00;98763.88;6239790;28;96305;-70
2023/11/23 09:06:24;;;;;;;;;14.20;14.00;;;;;9.78;100.00;98756.41;6225546;28;96422;-71
2023/11/23 09:09:27;;;;;;;;;18.00;15.20;;;;;10.08;100.00;98765.47;6240206;27;96373;-71
2023/11/23 09:12:33;;;;;;;;;15.00;13.60;;;;;10.50;100.00;98755.75;6240232;28;96416;-71
2023/11/23 09:15:36;;;;;;;;;16.75;14.75;;;;;11.02;100.00;98750.75;6238537;28;96300;-70
2023/11/23 09:18:42;;;;;;;;;15.40;14.40;;;;;11.85;99.03;98734.59;6218707;28;96655;-71
2023/11/23 09:21:46;;;;;;;;;17.75;15.75;;;;;11.65;98.21;98727.59;6240798;28;96254;-71
2023/11/23 09:24:49;;;;;;;;;14.00;12.80;;;;;11.69;99.79;98726.09;6208581;28;99125;-70
2023/11/23 09:27:53;;;;;;;;;17.00;15.00;;;;;11.52;100.00;98727.81;6240215;28;96264;-70
2023/11/23 09:30:56;;;;;;;;;13.40;11.00;;;;;11.25;100.00;98716.59;6207084;28;96434;-70
2023/11/23 09:34:01;;;;;;;;;20.40;15.60;;;;;11.24;100.00;98709.53;6212917;28;97618;-70
2023/11/23 09:37:06;;;;;;;;;17.50;13.50;;;;;11.16;100.00;98695.56;6236418;28;96863;-69
2023/11/23 09:40:16;;;;;;;;;15.00;15.00;;;;;11.33;100.00;98688.47;6240165;28;96392;-70
2023/11/23 09:43:20;;;;;;;;;14.80;13.40;;;;;11.47;100.00;98673.72;6239277;28;96582;-68
2023/11/23 09:46:25;;;;;;;;;16.00;14.60;;;;;11.76;100.00;98677.41;6222721;28;97234;-68
2023/11/23 09:49:30;;;;;;;;;14.00;11.60;;;;;11.81;100.00;98661.31;6216828;28;96666;-67
2023/11/23 09:52:37;;;;;;;;;16.00;14.00;;;;;12.44;99.49;98664.06;6212331;28;96558;-68
2023/11/23 09:55:41;;;;;;;;;14.60;13.00;;;;;13.02;95.28;98661.13;6212044;28;96457;-68
2023/11/23 09:58:45;;;;;;;;;16.00;14.00;;;;;13.52;95.71;98648.75;6232456;28;96536;-68
2023/11/23 10:01:52;;;;;;;;;15.00;13.00;;;;;13.46;93.17;98645.13;6239010;28;96314;-68
2023/11/23 10:04:58;;;;;;;;;17.40;15.40;;;;;12.91;95.26;98637.66;6206023;28;96511;-68
2023/11/23 10:08:01;;;;;;;;;13.00;12.00;;;;;12.55;97.30;98632.63;6220754;28;96676;-68
2023/11/23 10:11:05;;;;;;;;;16.00;13.00;;;;;12.18;100.00;98615.09;6239397;27;96374;-68
2023/11/23 10:14:08;;;;;;;;;15.20;13.20;;;;;11.88;100.00;98616.09;6238835;28;96667;-68
2023/11/23 10:17:11;;;;;;;;;16.00;11.00;;;;;11.63;100.00;98618.19;6217950;28;98602;-68
2023/11/23 10:20:16;;;;;;;;;16.00;14.00;;;;;11.29;100.00;98604.44;6237202;28;96607;-67
2023/11/23 10:23:21;;;;;;;;;16.00;12.80;;;;;11.21;100.00;98591.28;6217034;28;96575;-67
2023/11/23 10:26:25;;;;;;;;;14.00;13.00;;;;;11.01;100.00;98579.16;6238949;28;96390;-67
2023/11/23 10:29:29;;;;;;;;;15.00;13.67;;;;;10.88;100.00;98577.50;6225750;28;96525;-67
2023/11/23 10:32:33;;;;;;;;;16.00;15.20;;;;;10.69;100.00;98576.75;6248199;27;97041;-67
2023/11/23 10:35:41;;;;;;;;;18.00;15.40;;;;;10.71;100.00;98576.50;6234872;28;96456;-67
2023/11/23 10:38:44;;;;;;;;;17.50;15.00;;;;;10.60;100.00;98570.06;6207143;28;96704;-68
2023/11/23 10:41:49;;;;;;;;;19.00;16.00;;;;;10.39;100.00;98563.28;6205911;28;96744;-68
2023/11/23 10:44:53;;;;;;;;;15.60;15.00;;;;;10.46;100.00;98567.78;6229940;28;97599;-67
2023/11/23 10:47:58;;;;;;;;;15.00;14.00;;;;;10.24;100.00;98541.31;6237958;28;96461;-68
2023/11/23 10:51:06;;;;;;;;;15.00;13.00;;;;;10.23;100.00;98555.00;6217564;28;97114;-68
2023/11/23 10:54:10;;;;;;;;;17.00;15.75;;;;;10.25;100.00;98545.66;6232699;28;96285;-71
2023/11/23 10:57:15;;;;;;;;;17.00;14.40;;;;;10.21;100.00;98543.66;6229253;28;96331;-70
2023/11/23 11:00:23;;;;;;;;;17.80;14.80;;;;;10.22;100.00;98538.03;6210092;28;98224;-70
2023/11/23 11:03:27;;;;;;;;;17.75;15.75;;;;;10.23;100.00;98514.59;6225408;28;96366;-70
2023/11/23 11:06:40;;;;;;;;;18.00;16.00;;;;;10.16;100.00;98506.63;6208267;27;96487;-71
2023/11/23 11:09:46;;;;;;;;;16.40;15.00;;;;;10.16;100.00;98508.50;6227142;28;96460;-71
2023/11/23 11:12:50;;;;;;;;;14.40;14.40;;;;;10.29;100.00;98502.91;6192322;28;96695;-70
2023/11/23 11:15:56;;;;;;;;;18.40;15.40;;;;;10.30;100.00;98489.22;6206115;28;96657;-70
2023/11/23 11:19:06;;;;;;;;;14.40;12.00;;;;;10.38;100.00;98478.09;6212065;28;96713;-70
2023/11/23 11:22:13;;;;;;;;;18.75;17.75;;;;;10.39;100.00;98458.19;6210041;28;96897;-70
2023/11/23 11:25:17;;;;;;;;;16.40;15.00;;;;;10.66;100.00;98460.47;6224418;28;96308;-70
2023/11/23 11:28:20;;;;;;;;;16.40;14.40;;;;;10.75;100.00;98451.78;6226033;28;97560;-70
2023/11/23 11:31:31;;;;;;;;;17.00;14.60;;;;;10.61;100.00;98442.28;6237537;28;96291;-71
2023/11/23 11:34:36;;;;;;;;;17.75;15.75;;;;;10.68;100.00;98439.50;6200555;28;99284;-71
2023/11/23 11:37:42;;;;;;;;;16.50;14.50;;;;;10.70;100.00;98430.09;6227700;28;96806;-71
2023/11/23 11:40:49;;;;;;;;;15.80;14.20;;;;;10.74;100.00;98419.69;6244719;27;96437;-70
2023/11/23 11:43:52;;;;;;;;;19.00;17.20;;;;;10.88;100.00;98412.19;6227422;28;97067;-71
2023/11/23 11:46:56;;;;;;;;;15.40;14.40;;;;;10.89;100.00;98397.66;6219701;27;96860;-71
2023/11/23 11:50:00;;;;;;;;;18.00;17.00;;;;;10.80;100.00;98394.47;6209505;28;98596;-71
2023/11/23 11:53:06;;;;;;;;;18.40;16.40;;;;;10.91;100.00;98390.94;6234355;28;99118;-70
2023/11/23 11:56:11;;;;;;;;;17.00;15.80;;;;;10.85;100.00;98384.63;6230211;28;96428;-71
2023/11/23 11:59:18;;;;;;;;;17.40;16.00;;;;;10.88;100.00;98382.53;6237562;28;96386;-71
2023/11/23 12:02:21;;;;;;;;;15.60;15.00;;;;;10.90;100.00;98375.81;6220644;28;96623;-67
2023/11/23 12:05:24;;;;;;;;;18.00;16.00;;;;;11.12;100.00;98373.34;6213226;28;97020;-67
2023/11/23 12:08:34;;;;;;;;;13.00;13.00;;;;;11.23;100.00;98367.94;6231208;28;96345;-67
2023/11/23 12:11:37;;;;;;;;;14.00;12.00;;;;;11.26;100.00;98359.34;6225966;28;96469;-67
2023/11/23 12:14:40;;;;;;;;;19.40;17.40;;;;;11.33;100.00;98347.59;6229483;27;96944;-67
2023/11/23 12:17:50;;;;;;;;;18.00;15.00;;;;;11.57;100.00;98344.59;6206385;28;96368;-67
2023/11/23 12:20:55;;;;;;;;;16.00;15.00;;;;;11.50;100.00;98341.19;6219961;28;96293;-67
2023/11/23 12:24:00;;;;;;;;;15.20;14.00;;;;;11.34;100.00;98324.97;6236613;27;97238;-67
2023/11/23 12:27:04;;;;;;;;;14.20;13.20;;;;;11.21;100.00;98316.06;6236970;28;96334;-67
2023/11/23 12:30:08;;;;;;;;;14.50;13.50;;;;;11.30;100.00;98317.31;6236848;28;96460;-67
2023/11/23 12:33:13;;;;;;;;;15.00;13.25;;;;;11.52;100.00;98324.75;6235359;28;97051;-67
2023/11/23 12:36:16;;;;;;;;;13.40;12.00;;;;;11.50;100.00;98322.28;6235983;28;96545;-67
2023/11/23 12:39:21;;;;;;;;;17.20;16.80;;;;;11.52;100.00;98316.66;6235113;28;97036;-67
2023/11/23 12:42:24;;;;;;;;;18.67;16.00;;;;;11.58;100.00;98319.19;6223327;28;96396;-68
2023/11/23 12:45:28;;;;;;;;;16.00;14.20;;;;;11.63;100.00;98315.81;6211284;28;96558;-68
2023/11/23 12:48:32;;;;;;;;;14.00;12.60;;;;;11.68;100.00;98322.09;6245331;27;96678;-68
2023/11/23 12:51:36;;;;;;;;;13.80;13.00;;;;;11.58;100.00;98311.09;6220996;28;96740;-68
2023/11/23 12:54:42;;;;;;;;;17.00;16.00;;;;;11.52;100.00;98306.69;6201434;28;98562;-68
2023/11/23 12:57:45;;;;;;;;;15.00;13.50;;;;;11.60;100.00;98300.06;6234314;27;96397;-67
2023/11/23 13:00:49;;;;;;;;;16.00;14.60;;;;;11.60;100.00;98290.09;6218655;28;96983;-68
2023/11/23 13:03:52;;;;;;;;;15.20;15.00;;;;;11.65;100.00;98290.19;6222898;28;98515;-68
2023/11/23 13:06:57;;;;;;;;;16.00;15.00;;;;;11.52;100.00;98276.19;6220758;28;97534;-68
2023/11/23 13:10:02;;;;;;;;;14.00;13.00;;;;;11.45;100.00;98268.22;6228815;28;96375;-68
2023/11/23 13:13:05;;;;;;;;;14.80;14.00;;;;;11.52;100.00;98271.59;6238041;27;96295;-69
2023/11/23 13:16:09;;;;;;;;;17.60;15.80;;;;;11.32;100.00;98270.41;6224919;28;98505;-70
2023/11/23 13:19:13;;;;;;;;;15.80;14.20;;;;;11.50;100.00;98276.41;6238275;28;96328;-70
2023/11/23 13:22:35;;;;;;;;;17.00;17.00;;;;;11.38;100.00;98272.97;6238100;27;96496;-71
2023/11/23 13:25:40;;;;;;;;;16.00;15.00;;;;;11.24;100.00;98274.28;6226246;28;96436;-70
2023/11/23 13:28:44;;;;;;;;;12.80;12.60;;;;;11.21;100.00;98256.72;6218880;28;96788;-70
2023/11/23 13:31:49;;;;;;;;;15.80;14.40;;;;;11.27;100.00;98255.75;6232769;27;96892;-69
2023/11/23 13:34:54;;;;;;;;;13.00;12.00;;;;;11.16;100.00;98253.91;6204345;28;97210;-69
2023/11/23 13:37:57;;;;;;;;;12.00;11.60;;;;;11.19;100.00;98264.22;6225676;28;97127;-70
2023/11/23 13:41:02;;;;;;;;;16.40;15.40;;;;;11.21;100.00;98245.09;6220592;28;96802;-70
2023/11/23 13:44:06;;;;;;;;;14.00;12.40;;;;;11.21;100.00;98250.50;6191684;28;96651;-70
2023/11/23 13:47:12;;;;;;;;;13.25;11.25;;;;;11.22;100.00;98244.88;6243923;28;96307;-70
2023/11/23 13:50:16;;;;;;;;;11.75;11.75;;;;;11.04;100.00;98247.75;6228410;28;96337;-69
2023/11/23 13:53:20;;;;;;;;;16.75;15.75;;;;;10.91;100.00;98233.72;6222549;28;96725;-70
2023/11/23 13:56:24;;;;;;;;;14.20;13.00;;;;;10.88;100.00;98235.03;6219945;28;96348;-70
2023/11/23 13:59:27;;;;;;;;;15.60;14.60;;;;;10.99;100.00;98236.88;6208128;28;97008;-70
2023/11/23 14:02:38;;;;;;;;;15.00;14.20;;;;;11.07;100.00;98228.38;6238801;28;97192;-69